sensor_id;sensor_type;location;lat;lon;timestamp;P1;durP1;ratioP1;P2;durP2;ratioP2
14153;SDS011;7157;53.144;7.570;2023-05-10T00:09:10;20.73;;;9.75;;
14153;SDS011;7157;53.144;7.570;2023-05-10T00:19:12;19.02;;;9.25;;
14153;SDS011;7157;53.144;7.570;2023-05-10T00:29:17;27.23;;;10.85;;
14153;SDS011;7157;53.144;7.570;2023-05-10T00:39:20;22.42;;;9.32;;
14153;SDS011;7157;53.144;7.570;2023-05-10T00:49:24;25.48;;;9.77;;
14153;SDS011;7157;53.144;7.570;2023-05-10T00:59:27;14.82;;;8.40;;
14153;SDS011;7157;53.144;7.570;2023-05-10T01:09:32;16.17;;;8.30;;
14153;SDS011;7157;53.144;7.570;2023-05-10T01:19:35;16.02;;;7.15;;
14153;SDS011;7157;53.144;7.570;2023-05-10T01:29:58;15.20;;;7.40;;
14153;SDS011;7157;53.144;7.570;2023-05-10T01:40:25;15.88;;;7.40;;
14153;SDS011;7157;53.144;7.570;2023-05-10T01:50:32;16.95;;;7.80;;
14153;SDS011;7157;53.144;7.570;2023-05-10T02:00:39;15.20;;;7.90;;
14153;SDS011;7157;53.144;7.570;2023-05-10T02:10:44;20.90;;;8.55;;
14153;SDS011;7157;53.144;7.570;2023-05-10T02:20:50;21.48;;;9.30;;
14153;SDS011;7157;53.144;7.570;2023-05-10T02:30:55;16.55;;;7.80;;
14153;SDS011;7157;53.144;7.570;2023-05-10T02:41:00;13.35;;;6.38;;
14153;SDS011;7157;53.144;7.570;2023-05-10T02:51:05;9.32;;;4.82;;
14153;SDS011;7157;53.144;7.570;2023-05-10T03:01:10;11.73;;;5.70;;
14153;SDS011;7157;53.144;7.570;2023-05-10T03:11:20;11.18;;;5.72;;
14153;SDS011;7157;53.144;7.570;2023-05-10T03:21:31;15.40;;;6.65;;
14153;SDS011;7157;53.144;7.570;2023-05-10T03:31:35;14.25;;;6.75;;
14153;SDS011;7157;53.144;7.570;2023-05-10T03:41:39;14.48;;;7.18;;
14153;SDS011;7157;53.144;7.570;2023-05-10T03:51:42;22.80;;;8.18;;
14153;SDS011;7157;53.144;7.570;2023-05-10T04:01:46;15.10;;;7.70;;
14153;SDS011;7157;53.144;7.570;2023-05-10T04:11:49;18.33;;;7.65;;
14153;SDS011;7157;53.144;7.570;2023-05-10T04:21:53;17.08;;;7.57;;
14153;SDS011;7157;53.144;7.570;2023-05-10T04:31:56;15.82;;;8.13;;
14153;SDS011;7157;53.144;7.570;2023-05-10T04:42:00;15.90;;;8.15;;
14153;SDS011;7157;53.144;7.570;2023-05-10T04:52:04;17.92;;;7.90;;
14153;SDS011;7157;53.144;7.570;2023-05-10T05:02:08;14.45;;;7.05;;
14153;SDS011;7157;53.144;7.570;2023-05-10T05:12:10;15.07;;;7.18;;
14153;SDS011;7157;53.144;7.570;2023-05-10T05:22:16;16.20;;;7.25;;
14153;SDS011;7157;53.144;7.570;2023-05-10T05:32:21;15.73;;;6.90;;
14153;SDS011;7157;53.144;7.570;2023-05-10T05:42:26;17.25;;;7.57;;
14153;SDS011;7157;53.144;7.570;2023-05-10T05:52:29;12.85;;;6.68;;
14153;SDS011;7157;53.144;7.570;2023-05-10T06:02:34;17.92;;;8.38;;
14153;SDS011;7157;53.144;7.570;2023-05-10T06:12:37;15.15;;;7.32;;
14153;SDS011;7157;53.144;7.570;2023-05-10T06:22:41;12.23;;;6.72;;
14153;SDS011;7157;53.144;7.570;2023-05-10T06:32:44;10.90;;;5.72;;
14153;SDS011;7157;53.144;7.570;2023-05-10T06:42:48;10.50;;;5.18;;
14153;SDS011;7157;53.144;7.570;2023-05-10T06:52:51;9.80;;;4.85;;
14153;SDS011;7157;53.144;7.570;2023-05-10T07:02:55;8.60;;;4.60;;
14153;SDS011;7157;53.144;7.570;2023-05-10T07:12:58;9.10;;;4.47;;
14153;SDS011;7157;53.144;7.570;2023-05-10T07:23:03;7.63;;;3.55;;
14153;SDS011;7157;53.144;7.570;2023-05-10T07:33:05;5.25;;;3.00;;
14153;SDS011;7157;53.144;7.570;2023-05-10T07:43:09;4.82;;;2.80;;
14153;SDS011;7157;53.144;7.570;2023-05-10T07:53:12;4.35;;;2.40;;
14153;SDS011;7157;53.144;7.570;2023-05-10T08:03:16;3.03;;;1.40;;
14153;SDS011;7157;53.144;7.570;2023-05-10T08:13:19;2.58;;;1.00;;
14153;SDS011;7157;53.144;7.570;2023-05-10T08:23:24;1.27;;;0.60;;
14153;SDS011;7157;53.144;7.570;2023-05-10T08:33:27;1.70;;;0.70;;
14153;SDS011;7157;53.144;7.570;2023-05-10T08:43:31;1.00;;;0.52;;
14153;SDS011;7157;53.144;7.570;2023-05-10T08:53:34;0.80;;;0.40;;
14153;SDS011;7157;53.144;7.570;2023-05-10T09:03:40;1.52;;;0.50;;
14153;SDS011;7157;53.144;7.570;2023-05-10T09:13:43;1.15;;;0.57;;
14153;SDS011;7157;53.144;7.570;2023-05-10T09:23:48;1.60;;;0.70;;
14153;SDS011;7157;53.144;7.570;2023-05-10T09:33:52;0.75;;;0.40;;
14153;SDS011;7157;53.144;7.570;2023-05-10T09:43:56;2.50;;;1.20;;
14153;SDS011;7157;53.144;7.570;2023-05-10T09:54:09;7.88;;;3.25;;
14153;SDS011;7157;53.144;7.570;2023-05-10T10:04:14;11.38;;;6.00;;
14153;SDS011;7157;53.144;7.570;2023-05-10T10:14:17;14.55;;;6.32;;
14153;SDS011;7157;53.144;7.570;2023-05-10T10:24:22;13.40;;;6.35;;
14153;SDS011;7157;53.144;7.570;2023-05-10T10:34:25;10.57;;;5.75;;
14153;SDS011;7157;53.144;7.570;2023-05-10T10:44:35;12.25;;;5.45;;
14153;SDS011;7157;53.144;7.570;2023-05-10T10:54:39;8.67;;;5.30;;
14153;SDS011;7157;53.144;7.570;2023-05-10T11:04:44;9.25;;;5.63;;
14153;SDS011;7157;53.144;7.570;2023-05-10T11:14:49;4.93;;;3.30;;
14153;SDS011;7157;53.144;7.570;2023-05-10T11:24:59;6.18;;;3.55;;
14153;SDS011;7157;53.144;7.570;2023-05-10T11:35:06;6.22;;;3.60;;
14153;SDS011;7157;53.144;7.570;2023-05-10T11:45:11;6.00;;;3.30;;
14153;SDS011;7157;53.144;7.570;2023-05-10T11:55:14;4.97;;;2.78;;
14153;SDS011;7157;53.144;7.570;2023-05-10T12:05:18;6.20;;;3.10;;
14153;SDS011;7157;53.144;7.570;2023-05-10T12:15:21;5.38;;;3.10;;
14153;SDS011;7157;53.144;7.570;2023-05-10T12:25:30;5.47;;;3.10;;
14153;SDS011;7157;53.144;7.570;2023-05-10T12:35:38;5.07;;;3.50;;
14153;SDS011;7157;53.144;7.570;2023-05-10T12:45:48;4.65;;;3.35;;
14153;SDS011;7157;53.144;7.570;2023-05-10T12:55:50;5.60;;;3.03;;
14153;SDS011;7157;53.144;7.570;2023-05-10T13:05:55;4.70;;;2.75;;
14153;SDS011;7157;53.144;7.570;2023-05-10T13:15:58;4.68;;;2.88;;
14153;SDS011;7157;53.144;7.570;2023-05-10T13:26:02;4.97;;;2.10;;
14153;SDS011;7157;53.144;7.570;2023-05-10T13:36:05;3.00;;;1.38;;
14153;SDS011;7157;53.144;7.570;2023-05-10T13:46:09;2.70;;;1.20;;
14153;SDS011;7157;53.144;7.570;2023-05-10T13:56:13;2.10;;;1.00;;
14153;SDS011;7157;53.144;7.570;2023-05-10T14:06:17;2.83;;;1.30;;
14153;SDS011;7157;53.144;7.570;2023-05-10T14:16:19;5.53;;;2.05;;
14153;SDS011;7157;53.144;7.570;2023-05-10T14:26:24;5.53;;;2.50;;
14153;SDS011;7157;53.144;7.570;2023-05-10T14:36:27;6.80;;;2.65;;
14153;SDS011;7157;53.144;7.570;2023-05-10T14:46:31;6.15;;;2.33;;
14153;SDS011;7157;53.144;7.570;2023-05-10T14:56:35;10.40;;;2.50;;
14153;SDS011;7157;53.144;7.570;2023-05-10T15:06:40;9.80;;;3.38;;
14153;SDS011;7157;53.144;7.570;2023-05-10T15:16:43;9.82;;;3.10;;
14153;SDS011;7157;53.144;7.570;2023-05-10T15:26:47;5.88;;;2.80;;
14153;SDS011;7157;53.144;7.570;2023-05-10T15:36:50;6.22;;;3.05;;
14153;SDS011;7157;53.144;7.570;2023-05-10T15:46:54;8.57;;;3.53;;
14153;SDS011;7157;53.144;7.570;2023-05-10T15:56:56;6.78;;;3.28;;
14153;SDS011;7157;53.144;7.570;2023-05-10T16:07:01;10.13;;;3.60;;
14153;SDS011;7157;53.144;7.570;2023-05-10T16:17:04;9.05;;;3.08;;
14153;SDS011;7157;53.144;7.570;2023-05-10T16:27:09;6.05;;;2.47;;
14153;SDS011;7157;53.144;7.570;2023-05-10T16:37:13;6.63;;;2.72;;
14153;SDS011;7157;53.144;7.570;2023-05-10T16:47:17;6.80;;;3.28;;
14153;SDS011;7157;53.144;7.570;2023-05-10T16:57:20;6.10;;;3.10;;
14153;SDS011;7157;53.144;7.570;2023-05-10T17:07:24;6.95;;;2.90;;
14153;SDS011;7157;53.144;7.570;2023-05-10T17:17:30;7.10;;;2.90;;
14153;SDS011;7157;53.144;7.570;2023-05-10T17:27:34;7.68;;;2.78;;
14153;SDS011;7157;53.144;7.570;2023-05-10T17:37:37;5.57;;;2.42;;
14153;SDS011;7157;53.144;7.570;2023-05-10T17:47:43;6.05;;;3.17;;
14153;SDS011;7157;53.144;7.570;2023-05-10T17:57:45;5.63;;;2.97;;
14153;SDS011;7157;53.144;7.570;2023-05-10T18:07:53;4.57;;;2.53;;
14153;SDS011;7157;53.144;7.570;2023-05-10T18:17:56;9.00;;;2.78;;
14153;SDS011;7157;53.144;7.570;2023-05-10T18:28:01;4.70;;;2.40;;
14153;SDS011;7157;53.144;7.570;2023-05-10T18:38:03;8.93;;;2.80;;
14153;SDS011;7157;53.144;7.570;2023-05-10T18:48:07;5.55;;;3.60;;
14153;SDS011;7157;53.144;7.570;2023-05-10T18:58:10;8.10;;;3.67;;
14153;SDS011;7157;53.144;7.570;2023-05-10T19:08:14;11.27;;;4.10;;
14153;SDS011;7157;53.144;7.570;2023-05-10T19:18:17;7.32;;;4.47;;
14153;SDS011;7157;53.144;7.570;2023-05-10T19:28:21;9.88;;;4.95;;
14153;SDS011;7157;53.144;7.570;2023-05-10T19:38:24;8.00;;;5.25;;
14153;SDS011;7157;53.144;7.570;2023-05-10T19:48:29;9.73;;;5.07;;
14153;SDS011;7157;53.144;7.570;2023-05-10T19:58:32;14.95;;;6.72;;
14153;SDS011;7157;53.144;7.570;2023-05-10T20:08:37;15.93;;;7.72;;
14153;SDS011;7157;53.144;7.570;2023-05-10T20:18:39;14.95;;;7.82;;
14153;SDS011;7157;53.144;7.570;2023-05-10T20:28:43;14.52;;;7.38;;
14153;SDS011;7157;53.144;7.570;2023-05-10T20:38:46;16.45;;;8.07;;
14153;SDS011;7157;53.144;7.570;2023-05-10T20:48:50;13.20;;;7.20;;
14153;SDS011;7157;53.144;7.570;2023-05-10T20:58:53;17.05;;;8.13;;
14153;SDS011;7157;53.144;7.570;2023-05-10T21:08:57;13.90;;;6.55;;
14153;SDS011;7157;53.144;7.570;2023-05-10T21:19:01;12.32;;;5.55;;
14153;SDS011;7157;53.144;7.570;2023-05-10T21:29:05;11.43;;;5.88;;
14153;SDS011;7157;53.144;7.570;2023-05-10T21:39:07;12.93;;;6.20;;
14153;SDS011;7157;53.144;7.570;2023-05-10T21:49:11;11.23;;;5.57;;
14153;SDS011;7157;53.144;7.570;2023-05-10T21:59:14;12.20;;;5.82;;
14153;SDS011;7157;53.144;7.570;2023-05-10T22:09:19;10.80;;;5.43;;
14153;SDS011;7157;53.144;7.570;2023-05-10T22:19:24;14.57;;;5.90;;
14153;SDS011;7157;53.144;7.570;2023-05-10T22:29:28;12.15;;;6.30;;
14153;SDS011;7157;53.144;7.570;2023-05-10T22:39:31;13.50;;;6.22;;
14153;SDS011;7157;53.144;7.570;2023-05-10T22:49:36;15.13;;;6.72;;
14153;SDS011;7157;53.144;7.570;2023-05-10T22:59:38;19.02;;;8.57;;
14153;SDS011;7157;53.144;7.570;2023-05-10T23:09:43;28.30;;;9.38;;
14153;SDS011;7157;53.144;7.570;2023-05-10T23:19:46;25.60;;;10.77;;
14153;SDS011;7157;53.144;7.570;2023-05-10T23:29:50;27.75;;;10.13;;
14153;SDS011;7157;53.144;7.570;2023-05-10T23:39:55;24.17;;;9.52;;
14153;SDS011;7157;53.144;7.570;2023-05-10T23:50:00;20.60;;;9.00;;
